Time;durP1;ratioP1;P1;durP2;ratioP2;P2;SDS_P1;SDS_P2;PMS_P1;PMS_P2;Temp;Humidity;BMP_temperature;BMP_pressure;BME280_temperature;BME280_humidity;BME280_pressure;Samples;Min_cycle;Max_cycle;Signal;HPM_P1;HPM_P2
2021/08/10 00:01:56;;;;;;;3.25;2.80;;;25.50;99.90;;;;;;5007026;28;20641;-75
2021/08/10 00:04:23;;;;;;;7.97;3.10;;;25.40;99.90;;;;;;5025010;28;20215;-75
2021/08/10 00:06:49;;;;;;;8.82;2.90;;;25.40;99.90;;;;;;5016579;28;20189;-75
2021/08/10 00:09:16;;;;;;;4.53;2.70;;;25.40;99.90;;;;;;5022373;28;20186;-75
2021/08/10 00:11:42;;;;;;;3.30;2.42;;;25.30;99.90;;;;;;5016851;28;20760;-75
2021/08/10 00:14:11;;;;;;;3.75;2.78;;;25.30;99.90;;;;;;5019751;28;20188;-75
2021/08/10 00:16:38;;;;;;;4.53;2.60;;;25.30;99.90;;;;;;5023481;28;20195;-75
2021/08/10 00:19:06;;;;;;;5.50;2.67;;;25.30;99.90;;;;;;5023962;28;20195;-74
2021/08/10 00:21:34;;;;;;;5.47;2.80;;;25.20;99.90;;;;;;5022673;28;20215;-74
2021/08/10 00:24:01;;;;;;;4.55;2.80;;;25.30;99.90;;;;;;5016099;28;20213;-74
2021/08/10 00:26:28;;;;;;;3.33;2.58;;;25.20;99.90;;;;;;5017736;28;20181;-75
2021/08/10 00:28:55;;;;;;;3.47;2.50;;;25.20;99.90;;;;;;5021182;28;20183;-75
2021/08/10 00:31:21;;;;;;;4.20;2.47;;;25.10;99.90;;;;;;5022369;28;20672;-75
2021/08/10 00:33:48;;;;;;;7.57;2.47;;;25.10;99.90;;;;;;5005749;28;20246;-75
2021/08/10 00:36:15;;;;;;;5.60;2.58;;;25.20;99.90;;;;;;5025012;28;20644;-75
2021/08/10 00:38:42;;;;;;;3.95;2.38;;;25.30;99.90;;;;;;5026378;28;20212;-75
2021/08/10 00:41:08;;;;;;;3.78;2.63;;;25.20;99.90;;;;;;5023892;28;20204;-75
2021/08/10 00:43:40;;;;;;;4.50;2.50;;;25.20;99.90;;;;;;5012751;28;20582;-75
2021/08/10 00:46:11;;;;;;;4.32;2.67;;;25.20;99.90;;;;;;5005247;28;20270;-75
2021/08/10 00:48:38;;;;;;;3.85;2.75;;;25.30;99.90;;;;;;5020307;28;20190;-76
2021/08/10 00:51:08;;;;;;;4.63;2.50;;;25.30;99.90;;;;;;5016934;28;20195;-75
2021/08/10 00:53:37;;;;;;;6.68;2.42;;;25.20;99.90;;;;;;5024041;28;20200;-75
2021/08/10 00:56:08;;;;;;;4.80;2.28;;;25.20;99.90;;;;;;5024543;28;20548;-75
2021/08/10 00:58:38;;;;;;;3.58;2.85;;;25.20;99.90;;;;;;5007962;28;20237;-75
2021/08/10 01:01:06;;;;;;;6.05;2.72;;;25.20;99.90;;;;;;5020021;28;20192;-75
2021/08/10 01:03:33;;;;;;;7.13;2.75;;;25.10;99.90;;;;;;5022907;28;20556;-75
2021/08/10 01:06:06;;;;;;;3.75;2.45;;;25.10;99.90;;;;;;5018863;28;20188;-75
2021/08/10 01:09:10;;;;;;;5.72;2.60;;;25.10;99.90;;;;;;5020946;28;20215;-75
2021/08/10 01:11:39;;;;;;;3.78;2.42;;;25.00;99.90;;;;;;5019863;28;20192;-75
2021/08/10 01:14:21;;;;;;;4.85;2.42;;;25.00;99.90;;;;;;4998659;28;20661;-74
2021/08/10 01:17:17;;;;;;;5.53;2.20;;;25.00;99.90;;;;;;5018466;28;20195;-75
2021/08/10 01:20:10;;;;;;;4.80;2.90;;;25.10;99.90;;;;;;5024663;28;20204;-75
2021/08/10 01:22:43;;;;;;;4.70;2.72;;;25.10;99.90;;;;;;5020210;28;20754;-75
2021/08/10 01:25:57;;;;;;;6.50;2.60;;;25.10;99.90;;;;;;5006953;28;20275;-74
2021/08/10 01:29:09;;;;;;;3.47;2.17;;;25.10;99.90;;;;;;5006196;28;20188;-75
2021/08/10 01:31:44;;;;;;;2.40;2.20;;;25.10;99.90;;;;;;5019463;28;20192;-75
2021/08/10 01:34:46;;;;;;;4.78;2.47;;;25.10;99.90;;;;;;5016889;28;20180;-75
2021/08/10 01:37:23;;;;;;;4.45;2.47;;;25.10;99.90;;;;;;5003678;28;20208;-75
2021/08/10 01:40:01;;;;;;;4.40;2.78;;;25.10;99.90;;;;;;5022913;28;20708;-75
2021/08/10 01:42:30;;;;;;;3.65;2.28;;;25.10;99.90;;;;;;5006914;28;20225;-75
2021/08/10 01:45:01;;;;;;;2.30;2.10;;;25.10;99.90;;;;;;5002683;28;20268;-75
2021/08/10 01:47:29;;;;;;;6.43;2.85;;;25.10;99.90;;;;;;5028101;28;20227;-75
2021/08/10 01:50:01;;;;;;;4.82;2.50;;;25.10;99.90;;;;;;5006683;28;20669;-75
2021/08/10 01:52:29;;;;;;;6.35;2.20;;;25.00;99.90;;;;;;5019660;28;20671;-75
2021/08/10 01:54:57;;;;;;;3.35;2.30;;;25.00;99.90;;;;;;5016980;28;20189;-75
2021/08/10 01:57:25;;;;;;;4.20;2.38;;;25.10;99.90;;;;;;5005077;28;20188;-75
2021/08/10 01:59:55;;;;;;;3.88;2.10;;;25.10;99.90;;;;;;5021588;28;20866;-74
2021/08/10 02:02:22;;;;;;;5.75;2.63;;;25.10;99.90;;;;;;5022526;28;20189;-75
2021/08/10 02:04:50;;;;;;;5.20;2.15;;;25.00;99.90;;;;;;5028735;28;20216;-75
2021/08/10 02:07:20;;;;;;;5.45;2.30;;;25.10;99.90;;;;;;5011488;28;20192;-75
2021/08/10 02:09:49;;;;;;;5.20;2.63;;;25.00;99.90;;;;;;5017943;28;20188;-75
2021/08/10 02:12:17;;;;;;;3.50;2.30;;;25.00;99.90;;;;;;5011144;28;20192;-74
2021/08/10 02:14:47;;;;;;;4.00;2.65;;;25.00;99.90;;;;;;5030674;28;20731;-75
2021/08/10 02:17:16;;;;;;;6.68;2.72;;;25.00;99.90;;;;;;5017019;28;20181;-75
2021/08/10 02:19:44;;;;;;;5.70;2.40;;;25.00;99.90;;;;;;5009544;28;20199;-75
2021/08/10 02:22:16;;;;;;;4.47;2.42;;;24.90;99.90;;;;;;5030984;28;20223;-75
2021/08/10 02:24:59;;;;;;;7.55;2.28;;;24.90;99.90;;;;;;5021879;28;20347;-74
2021/08/10 02:27:36;;;;;;;4.68;2.30;;;24.90;99.90;;;;;;5025735;28;20676;-73
2021/08/10 02:30:10;;;;;;;4.32;2.50;;;24.90;99.90;;;;;;5023374;28;20269;-73
2021/08/10 02:32:39;;;;;;;4.03;2.33;;;24.90;99.90;;;;;;5010600;28;20606;-75
2021/08/10 02:35:08;;;;;;;3.78;2.40;;;24.90;99.90;;;;;;4997359;28;20273;-75
2021/08/10 02:37:37;;;;;;;3.17;2.40;;;24.80;99.90;;;;;;5021713;28;20197;-75
2021/08/10 02:40:10;;;;;;;2.90;2.42;;;24.90;99.90;;;;;;5018313;28;20215;-76
2021/08/10 02:42:38;;;;;;;6.40;2.60;;;24.90;99.90;;;;;;5024622;28;20307;-75
2021/08/10 02:45:07;;;;;;;4.90;2.67;;;24.90;99.90;;;;;;5008261;28;20579;-75
2021/08/10 02:47:33;;;;;;;4.22;2.35;;;24.80;99.90;;;;;;5001507;28;20247;-75
2021/08/10 02:50:01;;;;;;;6.10;2.47;;;24.80;99.90;;;;;;5007318;28;20191;-75
2021/08/10 02:52:28;;;;;;;3.37;2.40;;;24.80;99.90;;;;;;5007711;28;20573;-73
2021/08/10 02:54:54;;;;;;;8.02;2.30;;;24.70;99.90;;;;;;5032787;28;20180;-75
2021/08/10 02:57:33;;;;;;;4.17;2.50;;;24.70;99.90;;;;;;5024486;28;20188;-74
2021/08/10 03:00:11;;;;;;;3.97;2.45;;;24.70;99.90;;;;;;5027158;28;20187;-74
2021/08/10 03:02:48;;;;;;;4.78;2.45;;;24.70;99.90;;;;;;5004826;28;20712;-74
2021/08/10 03:05:23;;;;;;;4.10;2.28;;;24.70;99.90;;;;;;5031395;28;20216;-74
2021/08/10 03:08:00;;;;;;;13.60;2.70;;;24.70;99.90;;;;;;5006728;28;20188;-74
2021/08/10 03:10:32;;;;;;;6.53;2.40;;;24.60;99.90;;;;;;5021603;28;20184;-74
2021/08/10 03:13:07;;;;;;;12.63;2.80;;;24.60;99.90;;;;;;5035171;28;20280;-76
2021/08/10 03:15:39;;;;;;;74.17;6.97;;;24.50;99.90;;;;;;5005358;28;20231;-76
2021/08/10 03:18:11;;;;;;;132.13;11.43;;;24.50;99.90;;;;;;4998438;28;20199;-75
2021/08/10 03:20:44;;;;;;;136.40;10.13;;;24.50;99.90;;;;;;5022421;28;20223;-76
2021/08/10 03:23:19;;;;;;;197.30;12.83;;;24.50;99.90;;;;;;5022582;28;20215;-76
2021/08/10 03:25:50;;;;;;;54.03;7.13;;;24.50;99.90;;;;;;5024813;28;20187;-75
2021/08/10 03:28:21;;;;;;;14.40;3.00;;;24.50;99.90;;;;;;5024717;28;20246;-74
2021/08/10 03:30:49;;;;;;;9.20;2.60;;;24.50;99.90;;;;;;5009803;28;20192;-76
2021/08/10 03:33:21;;;;;;;5.80;3.00;;;24.60;99.90;;;;;;5010802;28;20194;-75
2021/08/10 03:35:48;;;;;;;7.80;2.83;;;24.60;99.90;;;;;;5023399;28;20187;-75
2021/08/10 03:38:17;;;;;;;5.30;2.90;;;24.60;99.90;;;;;;5009890;28;20929;-75
2021/08/10 03:40:44;;;;;;;11.25;3.00;;;24.70;99.90;;;;;;5023337;28;20731;-75
2021/08/10 03:43:11;;;;;;;4.18;2.65;;;24.60;99.90;;;;;;5007061;28;20200;-76
2021/08/10 03:45:38;;;;;;;12.48;2.83;;;24.70;99.90;;;;;;5023962;28;20188;-75
2021/08/10 03:48:11;;;;;;;65.80;5.70;;;24.70;99.90;;;;;;5029315;28;20181;-73
2021/08/10 03:50:40;;;;;;;10.60;2.50;;;24.80;99.90;;;;;;5022066;28;20238;-75
2021/08/10 03:53:07;;;;;;;4.97;2.90;;;24.70;99.90;;;;;;5024125;28;20184;-75
2021/08/10 03:55:35;;;;;;;24.30;4.30;;;24.70;99.90;;;;;;5025966;28;20191;-75
2021/08/10 03:58:06;;;;;;;14.18;2.95;;;24.70;99.90;;;;;;5030395;28;20200;-74
2021/08/10 04:00:37;;;;;;;5.93;2.80;;;24.70;99.90;;;;;;5025614;28;20563;-75
2021/08/10 04:03:09;;;;;;;5.33;2.90;;;24.70;99.90;;;;;;5028259;28;20660;-74
2021/08/10 04:05:44;;;;;;;6.07;2.70;;;24.70;99.90;;;;;;5028182;28;20650;-75
2021/08/10 04:08:17;;;;;;;5.70;3.03;;;24.80;99.90;;;;;;5025497;28;20205;-75
2021/08/10 04:10:47;;;;;;;9.47;2.80;;;24.90;99.90;;;;;;5004779;28;20641;-75
2021/08/10 04:13:14;;;;;;;7.32;2.90;;;24.90;99.90;;;;;;5019037;28;20189;-76
2021/08/10 04:15:49;;;;;;;5.80;3.22;;;24.90;99.90;;;;;;5024300;28;20195;-75
2021/08/10 04:18:25;;;;;;;16.75;3.90;;;25.00;99.90;;;;;;5023400;28;20656;-75
2021/08/10 04:20:53;;;;;;;28.30;4.57;;;25.00;99.90;;;;;;5016135;28;20588;-75
2021/08/10 04:23:22;;;;;;;40.35;4.80;;;25.00;99.90;;;;;;5008350;28;20246;-75
2021/08/10 04:25:49;;;;;;;23.83;4.18;;;25.00;99.90;;;;;;5005408;28;20182;-75
2021/08/10 04:28:16;;;;;;;21.48;4.05;;;25.00;99.90;;;;;;5026153;28;20184;-75
2021/08/10 04:30:45;;;;;;;12.98;3.60;;;25.10;99.90;;;;;;5019287;28;20597;-75
2021/08/10 04:33:13;;;;;;;12.10;3.53;;;25.00;99.90;;;;;;5022210;28;20212;-75
2021/08/10 04:35:39;;;;;;;7.43;3.50;;;25.00;99.90;;;;;;5019998;28;20206;-75
2021/08/10 04:38:07;;;;;;;7.15;3.72;;;25.00;99.90;;;;;;5009020;28;20183;-74
2021/08/10 04:40:33;;;;;;;8.48;3.20;;;25.10;99.90;;;;;;5036454;28;20195;-75
2021/08/10 04:43:02;;;;;;;10.68;3.92;;;25.10;99.90;;;;;;5008638;28;20549;-75
2021/08/10 04:45:28;;;;;;;12.77;4.05;;;25.20;99.90;;;;;;5008364;28;20223;-75
2021/08/10 04:47:55;;;;;;;5.57;3.35;;;25.20;99.90;;;;;;5003750;28;20196;-75
2021/08/10 04:50:22;;;;;;;11.93;3.08;;;25.20;99.90;;;;;;5003855;28;20521;-75
2021/08/10 04:52:49;;;;;;;9.05;3.50;;;25.30;99.90;;;;;;5016015;28;20220;-75
2021/08/10 04:55:15;;;;;;;15.98;3.25;;;25.30;99.90;;;;;;5019616;28;20709;-75
2021/08/10 04:57:42;;;;;;;9.25;3.13;;;25.30;99.90;;;;;;5023098;28;20272;-75
2021/08/10 05:00:09;;;;;;;5.25;3.00;;;25.30;99.90;;;;;;5025805;28;20180;-75
2021/08/10 05:02:43;;;;;;;5.80;2.80;;;25.40;99.90;;;;;;5024936;28;20184;-75
2021/08/10 05:05:10;;;;;;;4.50;2.58;;;25.40;99.90;;;;;;5006844;28;20242;-75
2021/08/10 05:07:37;;;;;;;4.85;2.80;;;25.50;99.90;;;;;;5037736;28;20180;-75
2021/08/10 05:10:04;;;;;;;4.50;3.08;;;25.50;99.90;;;;;;5028284;28;20223;-75
2021/08/10 05:12:31;;;;;;;4.93;2.53;;;25.50;99.90;;;;;;5021085;28;20852;-75
2021/08/10 05:14:58;;;;;;;3.53;2.63;;;25.60;99.90;;;;;;5024069;28;20225;-75
2021/08/10 05:17:25;;;;;;;3.60;2.50;;;25.60;99.90;;;;;;5031979;28;20191;-75
2021/08/10 05:19:52;;;;;;;5.13;2.95;;;25.60;99.90;;;;;;5018139;28;20266;-75
2021/08/10 05:22:20;;;;;;;8.48;2.70;;;25.60;99.90;;;;;;5014798;28;20216;-75
2021/08/10 05:24:46;;;;;;;4.03;2.78;;;25.60;99.90;;;;;;5016584;28;20266;-75
2021/08/10 05:27:12;;;;;;;3.53;2.50;;;25.70;99.90;;;;;;5022836;28;20192;-75
2021/08/10 05:29:39;;;;;;;5.35;2.90;;;25.70;99.90;;;;;;5022575;28;20184;-75
2021/08/10 05:32:06;;;;;;;5.45;2.53;;;25.80;99.90;;;;;;5023289;28;20315;-75
2021/08/10 05:34:32;;;;;;;5.70;2.85;;;25.80;99.90;;;;;;5033034;28;20548;-75
2021/08/10 05:36:59;;;;;;;6.25;3.00;;;25.90;99.90;;;;;;5030170;28;20196;-75
2021/08/10 05:39:26;;;;;;;6.97;3.20;;;25.90;99.90;;;;;;5021273;28;20695;-75
2021/08/10 05:41:53;;;;;;;7.10;2.70;;;25.90;99.90;;;;;;5022047;28;20203;-75
2021/08/10 05:44:20;;;;;;;4.25;2.97;;;26.00;99.90;;;;;;5021719;28;20577;-72
2021/08/10 05:46:47;;;;;;;7.35;2.90;;;26.00;99.90;;;;;;5023523;28;20180;-75
2021/08/10 05:49:14;;;;;;;6.32;3.00;;;26.10;99.90;;;;;;5027019;28;20192;-77
2021/08/10 05:51:40;;;;;;;5.05;2.92;;;26.10;99.90;;;;;;5021679;28;20195;-75
2021/08/10 05:54:12;;;;;;;5.53;3.33;;;26.20;99.90;;;;;;5019978;28;20188;-75
2021/08/10 05:56:41;;;;;;;5.38;3.08;;;26.30;99.90;;;;;;5008779;28;20193;-75
2021/08/10 05:59:10;;;;;;;5.38;3.20;;;26.40;99.90;;;;;;5023069;28;20188;-74
2021/08/10 06:01:37;;;;;;;6.68;3.03;;;26.60;99.90;;;;;;5032850;28;20197;-75
2021/08/10 06:04:05;;;;;;;4.95;2.97;;;26.60;99.90;;;;;;5026349;28;20232;-75
2021/08/10 06:06:34;;;;;;;14.50;3.17;;;26.60;99.90;;;;;;5027533;28;20188;-72
2021/08/10 06:09:05;;;;;;;44.00;4.00;;;26.80;99.90;;;;;;5025429;28;20278;-73
2021/08/10 06:11:35;;;;;;;8.32;3.13;;;26.90;99.90;;;;;;5033402;28;20243;-72
2021/08/10 06:14:03;;;;;;;4.10;2.78;;;27.00;99.90;;;;;;5021752;28;20754;-72
2021/08/10 06:16:31;;;;;;;6.95;3.03;;;27.00;99.90;;;;;;5031515;28;20188;-73
2021/08/10 06:18:57;;;;;;;5.28;3.20;;;27.00;99.90;;;;;;5010987;28;20192;-73
2021/08/10 06:21:24;;;;;;;3.92;2.97;;;27.30;99.90;;;;;;5010363;28;20258;-73
2021/08/10 06:23:50;;;;;;;4.55;3.13;;;27.20;99.90;;;;;;4999969;28;20224;-73
2021/08/10 06:26:17;;;;;;;6.05;2.90;;;27.30;99.90;;;;;;5021987;28;20327;-73
2021/08/10 06:28:45;;;;;;;3.92;2.85;;;27.20;99.90;;;;;;5043525;28;20188;-76
2021/08/10 06:31:11;;;;;;;4.47;2.72;;;27.50;99.90;;;;;;5024210;28;20204;-72
2021/08/10 06:33:38;;;;;;;7.32;3.67;;;27.80;99.90;;;;;;5025931;28;20184;-75
2021/08/10 06:36:05;;;;;;;10.18;3.28;;;27.90;99.90;;;;;;5025205;28;20192;-75
2021/08/10 06:38:33;;;;;;;6.82;2.88;;;28.00;99.90;;;;;;5027550;28;20192;-75
2021/08/10 06:41:00;;;;;;;3.80;2.95;;;28.20;99.90;;;;;;5008967;28;20201;-76
2021/08/10 06:43:27;;;;;;;8.82;3.45;;;28.30;99.90;;;;;;5007506;28;20295;-75
2021/08/10 06:45:53;;;;;;;6.85;2.63;;;28.40;99.90;;;;;;5024292;28;20195;-73
2021/08/10 06:48:19;;;;;;;7.53;3.42;;;28.40;99.90;;;;;;5003700;28;20188;-75
2021/08/10 06:50:46;;;;;;;7.07;3.75;;;28.50;99.90;;;;;;5026521;28;20215;-75
2021/08/10 06:53:14;;;;;;;9.23;3.58;;;28.60;99.90;;;;;;5008607;28;20788;-75
2021/08/10 06:55:40;;;;;;;8.75;3.45;;;28.80;99.90;;;;;;5020276;28;20638;-75
2021/08/10 06:58:10;;;;;;;4.72;3.33;;;28.70;99.90;;;;;;5030555;28;20188;-75
2021/08/10 07:00:39;;;;;;;8.18;3.38;;;28.80;99.90;;;;;;5023390;28;20185;-75
2021/08/10 07:03:06;;;;;;;11.95;3.70;;;28.90;99.90;;;;;;5027113;28;20304;-76
2021/08/10 07:05:34;;;;;;;7.40;3.08;;;29.00;99.90;;;;;;5026306;28;20592;-76
2021/08/10 07:08:01;;;;;;;5.28;3.20;;;29.10;99.90;;;;;;5027481;28;20210;-73
2021/08/10 07:10:27;;;;;;;10.85;3.38;;;29.10;99.90;;;;;;5026436;28;20568;-76
2021/08/10 07:12:54;;;;;;;10.48;3.70;;;29.10;99.90;;;;;;5019848;28;20504;-73
2021/08/10 07:15:21;;;;;;;6.68;3.70;;;29.10;99.90;;;;;;5025066;28;20664;-75
2021/08/10 07:17:47;;;;;;;7.82;3.60;;;29.20;99.90;;;;;;5020391;28;20663;-75
2021/08/10 07:20:14;;;;;;;6.90;3.55;;;29.20;99.90;;;;;;5025482;28;20188;-75
2021/08/10 07:22:40;;;;;;;5.90;3.42;;;29.30;99.90;;;;;;5021396;28;20884;-75
2021/08/10 07:25:08;;;;;;;8.45;3.25;;;29.30;99.90;;;;;;5021590;28;20883;-75
2021/08/10 07:27:35;;;;;;;10.85;3.55;;;29.40;99.90;;;;;;5021992;28;20246;-75
2021/08/10 07:30:04;;;;;;;4.90;3.50;;;29.50;99.90;;;;;;5027968;28;20196;-75
2021/08/10 07:32:31;;;;;;;7.05;3.65;;;29.50;99.90;;;;;;5022785;28;20200;-72
2021/08/10 07:34:58;;;;;;;6.55;3.72;;;29.60;99.90;;;;;;5009372;28;20729;-73
2021/08/10 07:37:25;;;;;;;6.18;3.55;;;29.70;99.90;;;;;;5023613;28;20816;-73
2021/08/10 07:39:51;;;;;;;8.88;3.60;;;29.70;99.90;;;;;;5018072;28;20189;-75
2021/08/10 07:42:18;;;;;;;11.25;3.83;;;29.80;99.90;;;;;;5017328;28;20180;-76
2021/08/10 07:44:48;;;;;;;8.77;3.53;;;29.90;99.90;;;;;;5026220;28;20204;-76
2021/08/10 07:47:17;;;;;;;8.13;3.83;;;29.90;99.90;;;;;;5019037;28;20638;-75
2021/08/10 07:49:43;;;;;;;7.78;3.97;;;29.90;99.90;;;;;;5007770;28;20379;-72
2021/08/10 07:52:09;;;;;;;7.35;3.60;;;29.80;99.90;;;;;;5005398;28;20866;-72
2021/08/10 07:54:36;;;;;;;10.50;4.18;;;30.00;99.90;;;;;;5024487;28;20192;-75
2021/08/10 07:57:02;;;;;;;6.97;3.75;;;30.10;99.90;;;;;;5015213;28;20598;-74
2021/08/10 07:59:28;;;;;;;8.43;4.22;;;30.20;99.90;;;;;;5020221;28;20185;-75
2021/08/10 08:01:58;;;;;;;7.90;4.00;;;30.20;99.90;;;;;;5029560;28;20538;-74
2021/08/10 08:04:24;;;;;;;10.43;4.45;;;30.10;99.90;;;;;;5007800;28;20223;-74
2021/08/10 08:06:51;;;;;;;9.60;3.88;;;30.20;99.90;;;;;;5023748;28;20308;-75
2021/08/10 08:09:18;;;;;;;9.55;3.97;;;30.30;99.90;;;;;;5006832;28;20235;-72
2021/08/10 08:11:44;;;;;;;7.40;4.18;;;30.30;99.90;;;;;;5012517;28;20200;-74
2021/08/10 08:14:10;;;;;;;9.00;4.00;;;30.50;99.90;;;;;;5030006;28;20189;-75
2021/08/10 08:16:37;;;;;;;6.20;4.00;;;30.40;99.90;;;;;;5027843;28;20185;-74
2021/08/10 08:19:04;;;;;;;10.05;4.20;;;30.50;99.90;;;;;;5014857;28;20184;-74
2021/08/10 08:21:30;;;;;;;11.10;3.70;;;30.40;99.90;;;;;;5027034;28;20748;-74
2021/08/10 08:23:56;;;;;;;8.18;3.60;;;30.60;99.90;;;;;;5009044;28;20200;-74
2021/08/10 08:26:24;;;;;;;12.32;4.07;;;30.70;99.90;;;;;;5015510;28;20206;-73
2021/08/10 08:28:55;;;;;;;5.47;3.50;;;30.70;99.90;;;;;;5018893;28;20854;-74
2021/08/10 08:31:22;;;;;;;9.27;4.03;;;30.80;99.90;;;;;;5022649;28;20283;-74
2021/08/10 08:33:49;;;;;;;10.18;3.95;;;30.80;99.90;;;;;;5027877;28;20199;-74
2021/08/10 08:36:18;;;;;;;9.65;3.72;;;30.80;99.90;;;;;;4994486;28;20203;-75
2021/08/10 08:38:44;;;;;;;11.30;4.00;;;31.00;99.90;;;;;;5017860;28;20284;-74
2021/08/10 08:41:13;;;;;;;8.77;3.67;;;31.00;99.90;;;;;;5011601;28;20188;-74
2021/08/10 08:43:40;;;;;;;7.63;3.60;;;31.00;99.90;;;;;;5022383;28;20216;-73
2021/08/10 08:46:07;;;;;;;8.02;4.05;;;31.00;99.90;;;;;;5022372;28;20619;-73
2021/08/10 08:48:34;;;;;;;9.73;3.28;;;31.10;99.90;;;;;;5030490;28;20185;-74
2021/08/10 08:51:04;;;;;;;8.00;3.80;;;31.20;99.90;;;;;;5019899;28;20184;-73
2021/08/10 08:53:34;;;;;;;5.93;3.50;;;31.30;99.90;;;;;;5022514;28;20271;-74
2021/08/10 08:56:01;;;;;;;5.40;3.05;;;31.20;99.90;;;;;;5017385;28;20227;-73
2021/08/10 08:58:27;;;;;;;6.72;3.30;;;31.40;99.90;;;;;;5000903;28;20189;-72
2021/08/10 09:00:55;;;;;;;7.10;2.95;;;31.60;99.90;;;;;;5009566;28;20181;-74
2021/08/10 09:03:21;;;;;;;5.25;3.30;;;31.70;99.90;;;;;;5023641;28;20199;-74
2021/08/10 09:05:48;;;;;;;4.70;3.17;;;31.60;99.90;;;;;;5008459;28;20185;-73
2021/08/10 09:08:45;;;;;;;7.13;2.92;;;31.70;99.90;;;;;;5024180;28;20192;-73
2021/08/10 09:11:19;;;;;;;8.00;3.13;;;31.70;99.90;;;;;;5021793;28;20192;-73
2021/08/10 09:13:59;;;;;;;4.88;2.70;;;31.80;98.60;;;;;;5028266;28;20783;-73
2021/08/10 09:16:26;;;;;;;6.05;2.58;;;31.80;98.60;;;;;;5024667;28;20192;-75
2021/08/10 09:18:52;;;;;;;21.15;3.45;;;31.80;97.40;;;;;;5023920;28;20600;-75
2021/08/10 09:21:28;;;;;;;4.53;2.85;;;31.80;96.30;;;;;;5021328;28;20208;-75
2021/08/10 09:23:57;;;;;;;8.95;2.70;;;31.90;95.60;;;;;;5028640;28;20417;-75
2021/08/10 09:26:40;;;;;;;4.75;2.95;;;32.00;96.20;;;;;;5026258;28;20185;-75
2021/08/10 09:29:06;;;;;;;5.07;2.53;;;32.30;94.10;;;;;;5017188;28;20207;-76
2021/08/10 09:31:38;;;;;;;7.28;3.03;;;32.20;93.30;;;;;;5022193;28;20230;-76
2021/08/10 09:34:19;;;;;;;6.38;3.03;;;32.20;91.60;;;;;;5024763;28;20195;-75
2021/08/10 09:36:47;;;;;;;6.78;2.85;;;32.30;92.30;;;;;;5025126;28;20179;-75
2021/08/10 09:39:14;;;;;;;6.53;3.15;;;32.40;92.60;;;;;;5017171;28;20532;-75
2021/08/10 09:41:59;;;;;;;6.57;3.33;;;33.30;93.40;;;;;;5025611;28;20188;-75
2021/08/10 09:44:25;;;;;;;6.93;3.33;;;33.60;95.40;;;;;;5005876;28;20270;-74
2021/08/10 09:46:53;;;;;;;3.85;2.70;;;33.90;96.20;;;;;;5024763;28;20258;-75
2021/08/10 09:49:21;;;;;;;8.60;2.67;;;33.80;96.10;;;;;;5022892;28;20246;-75
2021/08/10 09:51:52;;;;;;;6.03;3.22;;;33.40;96.60;;;;;;5022694;28;20204;-73
2021/08/10 09:54:21;;;;;;;10.00;3.30;;;33.50;98.30;;;;;;5023150;28;20300;-72
2021/08/10 09:57:03;;;;;;;7.95;3.35;;;33.20;95.80;;;;;;5027985;28;20191;-72
2021/08/10 09:59:46;;;;;;;8.98;2.90;;;33.10;97.00;;;;;;5022570;28;20196;-72
2021/08/10 10:02:22;;;;;;;6.00;2.80;;;33.40;94.40;;;;;;5023080;28;20188;-72
2021/08/10 10:04:54;;;;;;;6.38;2.70;;;33.50;95.30;;;;;;5027498;28;20224;-72
2021/08/10 10:07:22;;;;;;;8.00;2.90;;;33.50;96.30;;;;;;5022400;28;20184;-71
2021/08/10 10:09:49;;;;;;;16.13;3.20;;;33.40;96.30;;;;;;5022690;28;20226;-72
2021/08/10 10:12:19;;;;;;;9.02;2.88;;;33.50;97.40;;;;;;5018538;28;20196;-72
2021/08/10 10:14:48;;;;;;;6.05;3.03;;;33.40;95.30;;;;;;5024951;28;20238;-72
2021/08/10 10:17:18;;;;;;;13.25;3.67;;;33.40;96.70;;;;;;5018310;28;20582;-72
2021/08/10 10:19:46;;;;;;;4.28;2.80;;;33.80;97.00;;;;;;5022088;28;20216;-74
2021/08/10 10:22:23;;;;;;;6.68;3.20;;;33.80;94.90;;;;;;5022175;28;20815;-72
2021/08/10 10:25:02;;;;;;;6.18;3.08;;;33.80;97.60;;;;;;5016982;28;20952;-72
2021/08/10 10:27:29;;;;;;;6.45;3.35;;;33.80;96.70;;;;;;5017760;28;20204;-72
2021/08/10 10:29:56;;;;;;;6.80;2.90;;;34.00;97.60;;;;;;5016224;28;20203;-72
2021/08/10 10:32:25;;;;;;;8.95;3.40;;;34.30;97.20;;;;;;5023098;28;20199;-72
2021/08/10 10:34:53;;;;;;;5.88;2.80;;;36.10;94.50;;;;;;5007658;28;20188;-73
2021/08/10 10:37:27;;;;;;;7.65;2.75;;;37.20;92.00;;;;;;5024186;28;20253;-73
2021/08/10 10:40:05;;;;;;;5.78;2.90;;;37.40;93.30;;;;;;5018754;28;20205;-72
2021/08/10 10:42:34;;;;;;;7.97;3.20;;;37.50;90.50;;;;;;5025820;28;20184;-71
2021/08/10 10:45:01;;;;;;;7.20;2.85;;;36.80;90.70;;;;;;5029968;28;20619;-72
2021/08/10 10:47:34;;;;;;;7.47;3.10;;;35.70;89.70;;;;;;5030804;28;20934;-72
2021/08/10 10:50:00;;;;;;;4.50;2.90;;;34.90;90.80;;;;;;5022807;28;20684;-72
2021/08/10 10:52:31;;;;;;;5.57;2.80;;;34.60;92.00;;;;;;5023626;28;20188;-74
2021/08/10 10:55:00;;;;;;;5.00;2.80;;;34.50;93.00;;;;;;5032700;28;20200;-74
2021/08/10 10:57:33;;;;;;;6.18;3.00;;;34.50;94.20;;;;;;5004400;28;20703;-73
2021/08/10 11:00:07;;;;;;;6.32;2.80;;;34.30;95.50;;;;;;5021625;28;20623;-74
2021/08/10 11:02:36;;;;;;;4.70;3.20;;;34.30;94.20;;;;;;5023313;28;20188;-73
2021/08/10 11:05:09;;;;;;;8.95;3.10;;;34.00;94.60;;;;;;5020992;28;20267;-73
2021/08/10 11:07:47;;;;;;;7.57;3.03;;;33.90;94.60;;;;;;5023943;28;20278;-73
2021/08/10 11:10:52;;;;;;;9.20;3.38;;;33.90;95.20;;;;;;5027433;28;20544;-73
2021/08/10 11:13:21;;;;;;;6.13;3.28;;;34.00;94.90;;;;;;5007470;28;20180;-74
2021/08/10 11:15:47;;;;;;;8.95;3.30;;;33.90;96.30;;;;;;5018753;28;20173;-73
2021/08/10 11:18:17;;;;;;;5.38;3.00;;;33.90;96.90;;;;;;5019912;28;20191;-73
2021/08/10 11:20:59;;;;;;;12.68;3.33;;;33.90;97.60;;;;;;5020477;28;20680;-73
2021/08/10 11:23:27;;;;;;;7.55;3.50;;;33.70;97.70;;;;;;5020147;28;20227;-73
2021/08/10 11:26:05;;;;;;;7.10;3.20;;;33.80;97.40;;;;;;5015458;28;20185;-74
2021/08/10 11:28:46;;;;;;;5.32;3.45;;;33.80;98.00;;;;;;5026299;28;20176;-73
2021/08/10 11:31:38;;;;;;;8.05;3.38;;;33.90;97.60;;;;;;5016596;28;20200;-74
2021/08/10 11:34:33;;;;;;;5.35;2.80;;;33.80;97.70;;;;;;5022090;28;20270;-73
2021/08/10 11:37:22;;;;;;;6.50;3.08;;;33.80;97.50;;;;;;5023723;28;20279;-74
2021/08/10 11:40:11;;;;;;;12.63;3.25;;;33.70;96.00;;;;;;5006158;28;20267;-73
2021/08/10 11:42:41;;;;;;;7.20;2.92;;;33.80;96.20;;;;;;5008006;28;20199;-74
2021/08/10 11:45:10;;;;;;;9.93;3.08;;;33.80;96.10;;;;;;5021156;28;20270;-74
2021/08/10 11:47:40;;;;;;;7.85;3.25;;;33.90;95.20;;;;;;5016254;28;20264;-73
2021/08/10 11:50:07;;;;;;;6.03;3.25;;;33.90;93.40;;;;;;5005187;28;20184;-73
2021/08/10 11:52:47;;;;;;;5.25;3.10;;;33.90;94.50;;;;;;5021505;28;20188;-74
2021/08/10 11:55:15;;;;;;;5.95;2.95;;;33.90;94.90;;;;;;5019548;28;20290;-74
2021/08/10 11:58:05;;;;;;;5.75;2.83;;;33.90;95.50;;;;;;5018442;28;20204;-74
2021/08/10 12:00:35;;;;;;;7.15;3.15;;;33.90;94.70;;;;;;5019495;28;20189;-73
2021/08/10 12:03:04;;;;;;;7.20;3.30;;;33.90;94.90;;;;;;5015611;28;20193;-73
2021/08/10 12:05:31;;;;;;;6.25;3.30;;;33.80;93.80;;;;;;5015074;28;20246;-74
2021/08/10 12:08:01;;;;;;;7.93;3.10;;;33.70;93.70;;;;;;5022972;28;20192;-74
2021/08/10 12:10:35;;;;;;;7.88;3.58;;;33.80;93.80;;;;;;5020289;28;20185;-73
2021/08/10 12:13:23;;;;;;;5.30;2.92;;;33.80;93.30;;;;;;5019446;28;20249;-72
2021/08/10 12:15:50;;;;;;;8.35;3.20;;;33.60;93.60;;;;;;5017904;28;20176;-73
2021/08/10 12:18:23;;;;;;;5.18;2.80;;;33.60;92.50;;;;;;5024420;28;20282;-73
2021/08/10 12:20:59;;;;;;;8.20;3.47;;;33.50;92.10;;;;;;5017600;28;20271;-74
2021/08/10 12:23:37;;;;;;;8.65;3.22;;;33.60;91.50;;;;;;5018899;28;20895;-73
2021/08/10 12:26:17;;;;;;;5.50;3.30;;;33.60;92.20;;;;;;5013525;28;20931;-73
2021/08/10 12:29:04;;;;;;;7.78;3.00;;;33.60;91.40;;;;;;5012010;28;20275;-74
2021/08/10 12:31:34;;;;;;;7.05;3.05;;;33.70;91.70;;;;;;5015455;28;20231;-73
2021/08/10 12:34:01;;;;;;;3.72;2.78;;;33.80;91.20;;;;;;5017975;28;20782;-73
2021/08/10 12:36:28;;;;;;;12.43;2.70;;;33.80;90.80;;;;;;5003420;28;20184;-74
2021/08/10 12:39:02;;;;;;;12.02;2.70;;;33.80;89.70;;;;;;5004253;28;20283;-74
2021/08/10 12:41:30;;;;;;;6.05;2.75;;;33.70;88.90;;;;;;5015908;28;20274;-73
2021/08/10 12:43:57;;;;;;;5.25;2.63;;;33.70;88.60;;;;;;5007139;28;20289;-73
2021/08/10 12:46:35;;;;;;;5.80;2.65;;;33.90;87.20;;;;;;5021522;28;20220;-73
2021/08/10 12:49:13;;;;;;;4.47;2.45;;;33.90;87.10;;;;;;5024450;28;20852;-74
2021/08/10 12:52:01;;;;;;;5.57;2.58;;;33.70;86.60;;;;;;5022650;28;21036;-74
2021/08/10 12:54:35;;;;;;;13.63;2.50;;;33.70;86.00;;;;;;5020242;28;20184;-74
2021/08/10 12:57:27;;;;;;;11.48;2.83;;;33.70;86.60;;;;;;5024529;28;20193;-74
2021/08/10 12:59:57;;;;;;;5.10;2.70;;;33.90;83.40;;;;;;5024742;28;20184;-74
2021/08/10 13:02:38;;;;;;;4.90;2.67;;;33.80;84.70;;;;;;5008977;28;20180;-74
2021/08/10 13:05:12;;;;;;;9.43;2.63;;;33.90;81.60;;;;;;5016222;28;20619;-74